createdAt,value
2017-06-21T00:00:36.576Z,22.73
2017-06-21T00:01:38.452Z,22.62
2017-06-21T00:02:40.320Z,22.68
2017-06-21T00:03:42.201Z,22.68
2017-06-21T00:04:56.343Z,22.80
2017-06-21T00:05:58.210Z,22.91
2017-06-21T00:07:00.093Z,22.86
2017-06-21T00:08:01.954Z,22.98
2017-06-21T00:09:03.751Z,22.97
2017-06-21T00:10:05.553Z,23.01
2017-06-21T00:11:07.418Z,22.86
2017-06-21T00:12:09.281Z,22.73
2017-06-21T00:13:11.170Z,22.77
2017-06-21T00:14:25.324Z,22.77
2017-06-21T00:15:27.183Z,22.72
2017-06-21T00:16:29.053Z,22.83
2017-06-21T00:17:30.933Z,22.75
2017-06-21T00:18:32.757Z,22.76
2017-06-21T00:19:34.554Z,22.65
2017-06-21T00:20:36.416Z,22.47
2017-06-21T00:21:38.278Z,22.28
2017-06-21T00:22:40.143Z,22.18
2017-06-21T00:23:54.295Z,22.15
2017-06-21T00:24:56.157Z,22.14
2017-06-21T00:25:58.027Z,22.10
2017-06-21T00:26:59.911Z,22.14
2017-06-21T00:28:01.728Z,22.09
2017-06-21T00:29:03.533Z,22.14
2017-06-21T00:30:05.416Z,22.07
2017-06-21T00:31:07.281Z,21.96
2017-06-21T00:32:09.144Z,21.94
2017-06-21T00:33:23.291Z,22.05
2017-06-21T00:34:25.160Z,22.03
2017-06-21T00:35:27.019Z,21.82
2017-06-21T00:36:28.885Z,21.91
2017-06-21T00:37:30.687Z,21.79
2017-06-21T00:38:32.510Z,21.75
2017-06-21T00:39:34.394Z,21.75
2017-06-21T00:40:36.278Z,21.71
2017-06-21T00:41:38.157Z,21.62
2017-06-21T00:42:52.343Z,21.74
2017-06-21T00:43:54.203Z,21.71
2017-06-21T00:44:56.066Z,21.65
2017-06-21T00:45:57.926Z,21.54
2017-06-21T00:46:59.729Z,21.58
2017-06-21T00:48:01.527Z,21.59
2017-06-21T00:49:03.418Z,21.50
2017-06-21T00:50:05.301Z,21.40
2017-06-21T00:51:07.185Z,21.27
2017-06-21T00:52:21.370Z,21.24
2017-06-21T00:53:23.255Z,21.24
2017-06-21T00:54:25.118Z,21.29
2017-06-21T00:55:27.006Z,21.19
2017-06-21T00:56:28.824Z,21.21
2017-06-21T00:57:30.625Z,21.27
2017-06-21T00:58:32.509Z,21.13
2017-06-21T00:59:34.395Z,21.14
2017-06-21T01:00:36.272Z,21.14
2017-06-21T01:01:50.460Z,21.14
2017-06-21T01:02:52.336Z,21.09
2017-06-21T01:03:54.198Z,21.17
2017-06-21T01:04:56.059Z,21.09
2017-06-21T01:05:57.857Z,21.12
2017-06-21T01:06:59.679Z,21.16
2017-06-21T01:08:01.535Z,21.17
2017-06-21T01:09:03.399Z,21.12
2017-06-21T01:10:05.259Z,21.01
2017-06-21T01:11:19.416Z,20.98
2017-06-21T01:12:21.297Z,20.92
2017-06-21T01:13:23.163Z,20.91
2017-06-21T01:14:25.050Z,20.82
2017-06-21T01:15:26.871Z,20.80
2017-06-21T01:16:28.671Z,20.76
2017-06-21T01:17:30.551Z,20.80
2017-06-21T01:18:32.426Z,20.77
2017-06-21T01:19:34.305Z,20.67
2017-06-21T01:20:48.446Z,20.70
2017-06-21T01:21:50.329Z,20.58
2017-06-21T01:22:52.211Z,20.66
2017-06-21T01:23:54.077Z,20.70
2017-06-21T01:24:55.894Z,20.64
2017-06-21T01:27:15.367Z,20.69
2017-06-21T01:28:17.229Z,20.67
2017-06-21T01:29:19.090Z,20.66
2017-06-21T01:30:33.216Z,20.70
2017-06-21T01:31:35.084Z,20.61
2017-06-21T01:32:36.941Z,20.66
2017-06-21T01:33:38.817Z,20.55
2017-06-21T01:34:40.627Z,20.67
2017-06-21T01:35:42.446Z,20.52
2017-06-21T01:36:44.304Z,20.58
2017-06-21T01:37:46.165Z,20.59
2017-06-21T01:38:48.046Z,20.55
2017-06-21T01:40:02.196Z,20.54
2017-06-21T01:41:04.060Z,20.59
2017-06-21T01:42:05.944Z,20.57
2017-06-21T01:43:07.825Z,20.52
2017-06-21T01:44:09.642Z,20.55
2017-06-21T01:45:11.446Z,20.38
2017-06-21T01:46:13.305Z,20.38
2017-06-21T01:47:15.162Z,20.36
2017-06-21T01:48:16.985Z,20.39
2017-06-21T01:49:31.126Z,20.55
2017-06-21T01:50:32.995Z,20.43
2017-06-21T01:51:34.860Z,20.38
2017-06-21T01:52:36.736Z,20.28
2017-06-21T01:53:38.540Z,20.28
2017-06-21T01:54:40.341Z,20.35
2017-06-21T01:55:42.228Z,20.33
2017-06-21T01:56:44.106Z,20.24
2017-06-21T01:57:45.969Z,20.18
2017-06-21T01:59:00.154Z,20.20
2017-06-21T02:00:02.031Z,20.24
2017-06-21T02:01:03.888Z,20.23
2017-06-21T02:02:05.748Z,20.21
2017-06-21T02:03:07.564Z,20.23
2017-06-21T02:04:09.368Z,20.26
2017-06-21T02:05:11.251Z,20.21
2017-06-21T02:06:13.134Z,20.17
2017-06-21T02:07:15.014Z,20.08
2017-06-21T02:08:29.170Z,20.08
2017-06-21T02:09:31.032Z,20.20
2017-06-21T02:10:32.916Z,20.24
2017-06-21T02:11:34.798Z,20.14
2017-06-21T02:12:36.618Z,20.18
2017-06-21T02:13:38.421Z,20.11
2017-06-21T02:14:40.299Z,20.02
2017-06-21T02:15:42.162Z,19.99
2017-06-21T02:16:44.043Z,19.92
2017-06-21T02:17:58.246Z,19.92
2017-06-21T02:19:00.109Z,19.87
2017-06-21T02:20:02.019Z,19.83
2017-06-21T02:21:03.847Z,19.78
2017-06-21T02:22:05.651Z,19.77
2017-06-21T02:23:07.469Z,19.80
2017-06-21T02:24:09.329Z,19.81
2017-06-21T02:25:11.192Z,19.77
2017-06-21T02:26:13.054Z,19.78
2017-06-21T02:27:27.178Z,19.91
2017-06-21T02:28:29.040Z,19.84
2017-06-21T02:29:30.902Z,19.84
2017-06-21T02:30:32.787Z,19.96
2017-06-21T02:31:34.610Z,19.96
2017-06-21T02:32:36.435Z,19.96
2017-06-21T02:33:38.315Z,19.95
2017-06-21T02:34:40.162Z,20.01
2017-06-21T02:35:41.984Z,19.99
2017-06-21T02:36:56.137Z,19.96
2017-06-21T02:37:58.000Z,19.92
2017-06-21T02:38:59.885Z,19.98
2017-06-21T02:40:01.766Z,19.95
2017-06-21T02:41:03.859Z,19.92
2017-06-21T02:42:05.675Z,19.87
2017-06-21T02:43:07.552Z,19.80
2017-06-21T02:44:09.432Z,19.78
2017-06-21T02:45:11.301Z,19.71
2017-06-21T02:46:25.502Z,19.69
2017-06-21T02:47:27.384Z,19.63
2017-06-21T02:48:29.262Z,19.73
2017-06-21T02:49:31.135Z,19.76
2017-06-21T02:50:32.937Z,19.77
2017-06-21T02:51:34.742Z,19.88
2017-06-21T02:52:36.624Z,19.92
2017-06-21T02:53:38.510Z,20.06
2017-06-21T02:54:40.395Z,20.18
2017-06-21T02:55:54.545Z,20.18
2017-06-21T02:56:56.416Z,20.28
2017-06-21T02:57:58.300Z,20.47
2017-06-21T02:59:00.167Z,20.39
2017-06-21T03:00:01.993Z,20.48
2017-06-21T03:01:03.817Z,20.48
2017-06-21T03:02:05.700Z,20.39
2017-06-21T03:03:07.564Z,20.42
2017-06-21T03:04:09.433Z,20.39
2017-06-21T03:05:23.588Z,20.57
2017-06-21T03:06:25.456Z,20.57
2017-06-21T03:07:27.315Z,20.55
2017-06-21T03:08:29.181Z,20.66
2017-06-21T03:09:30.987Z,20.67
2017-06-21T03:10:32.793Z,20.66
2017-06-21T03:11:34.677Z,20.61
2017-06-21T03:12:36.540Z,20.64
2017-06-21T03:13:38.406Z,20.55
2017-06-21T03:14:52.545Z,20.55
2017-06-21T03:15:54.421Z,20.52
2017-06-21T03:16:56.285Z,20.59
2017-06-21T03:17:58.145Z,20.70
2017-06-21T03:18:59.954Z,20.99
2017-06-21T03:20:01.780Z,21.28
2017-06-21T03:21:03.661Z,21.65
2017-06-21T03:22:05.529Z,21.92
2017-06-21T03:23:07.410Z,22.14
2017-06-21T03:24:21.544Z,22.45
2017-06-21T03:25:23.410Z,22.64
2017-06-21T03:26:25.282Z,22.79
2017-06-21T03:27:27.163Z,22.90
2017-06-21T03:28:28.973Z,22.98
2017-06-21T03:29:30.781Z,23.16
2017-06-21T03:30:32.668Z,23.23
2017-06-21T03:31:34.561Z,23.38
2017-06-21T03:32:36.447Z,23.43
2017-06-21T03:33:50.610Z,23.61
2017-06-21T03:34:52.491Z,23.61
2017-06-21T03:35:54.353Z,23.75
2017-06-21T03:36:56.252Z,23.83
2017-06-21T03:37:58.081Z,23.75
2017-06-21T03:38:59.914Z,23.78
2017-06-21T03:40:01.799Z,23.85
2017-06-21T03:41:03.682Z,23.87
2017-06-21T03:42:05.556Z,23.85
2017-06-21T03:43:19.715Z,24.00
2017-06-21T03:44:21.580Z,24.16
2017-06-21T03:45:23.469Z,24.25
2017-06-21T03:46:25.359Z,24.53
2017-06-21T03:47:27.170Z,24.80
2017-06-21T03:48:28.999Z,24.95
2017-06-21T03:49:30.883Z,25.15
2017-06-21T03:50:32.755Z,25.38
2017-06-21T03:51:34.644Z,25.57
2017-06-21T03:52:48.805Z,25.62
2017-06-21T03:53:50.677Z,25.65
2017-06-21T03:54:52.539Z,25.72
2017-06-21T03:55:54.413Z,25.76
2017-06-21T03:56:56.247Z,25.82
2017-06-21T03:57:58.073Z,25.91
2017-06-21T03:58:59.939Z,26.06
2017-06-21T04:00:01.813Z,26.17
2017-06-21T04:01:03.676Z,26.20
2017-06-21T04:02:17.824Z,26.30
2017-06-21T04:03:19.709Z,26.45
2017-06-21T04:04:21.583Z,26.60
2017-06-21T04:05:23.479Z,26.63
2017-06-21T04:06:25.314Z,26.72
2017-06-21T04:07:27.148Z,26.88
2017-06-21T04:08:29.041Z,27.06
2017-06-21T04:09:30.929Z,27.27
2017-06-21T04:10:32.806Z,27.59
2017-06-21T04:11:46.968Z,27.79
2017-06-21T04:12:48.838Z,27.90
2017-06-21T04:13:50.703Z,28.06
2017-06-21T04:14:52.582Z,28.12
2017-06-21T04:15:54.417Z,28.18
2017-06-21T04:16:56.242Z,28.24
2017-06-21T04:17:58.113Z,28.36
2017-06-21T04:18:59.985Z,28.54
2017-06-21T04:20:01.872Z,28.70
2017-06-21T04:21:16.044Z,28.88
2017-06-21T04:22:17.937Z,28.88
2017-06-21T04:23:19.825Z,29.00
2017-06-21T04:24:21.699Z,29.14
2017-06-21T04:25:23.535Z,29.21
2017-06-21T04:26:25.361Z,29.33
2017-06-21T04:27:27.236Z,29.41
2017-06-21T04:28:29.133Z,29.51
2017-06-21T04:29:30.998Z,29.53
2017-06-21T04:30:45.146Z,29.63
2017-06-21T04:31:47.030Z,29.79
2017-06-21T04:32:48.907Z,29.94
2017-06-21T04:33:50.798Z,29.89
2017-06-21T04:34:52.608Z,29.92
2017-06-21T04:35:54.422Z,29.90
2017-06-21T04:36:56.289Z,29.95
2017-06-21T04:37:58.163Z,30.11
2017-06-21T04:39:00.041Z,30.17
2017-06-21T04:40:14.210Z,30.34
2017-06-21T04:41:16.105Z,30.20
2017-06-21T04:42:17.994Z,30.27
2017-06-21T04:43:19.872Z,30.45
2017-06-21T04:44:21.707Z,30.53
2017-06-21T04:45:23.542Z,30.64
2017-06-21T04:46:25.440Z,30.64
2017-06-21T04:47:27.334Z,30.55
2017-06-21T04:48:29.208Z,30.43
2017-06-21T04:49:43.401Z,30.34
2017-06-21T04:50:45.211Z,30.37
2017-06-21T04:51:47.024Z,30.57
2017-06-21T04:52:48.836Z,30.72
2017-06-21T04:53:50.674Z,30.69
2017-06-21T04:54:52.541Z,30.54
2017-06-21T04:55:54.413Z,30.42
2017-06-21T04:56:56.244Z,30.45
2017-06-21T04:57:58.078Z,30.57
2017-06-21T04:59:12.246Z,30.55
2017-06-21T05:00:14.120Z,30.67
2017-06-21T05:01:16.015Z,30.65
2017-06-21T05:02:17.880Z,30.60
2017-06-21T05:03:19.701Z,30.73
2017-06-21T05:04:21.535Z,30.54
2017-06-21T05:05:23.402Z,30.43
2017-06-21T05:06:25.297Z,30.24
2017-06-21T05:07:27.165Z,30.19
2017-06-21T05:08:41.314Z,30.37
2017-06-21T05:09:43.182Z,30.53
2017-06-21T05:10:45.057Z,30.38
2017-06-21T05:11:46.933Z,30.23
2017-06-21T05:12:48.767Z,30.22
2017-06-21T05:13:50.594Z,30.20
2017-06-21T05:14:52.466Z,30.17
2017-06-21T05:15:54.355Z,30.29
2017-06-21T05:16:56.252Z,30.47
2017-06-21T05:18:10.415Z,30.42
2017-06-21T05:19:12.286Z,30.23
2017-06-21T05:20:14.178Z,30.32
2017-06-21T05:21:16.067Z,30.31
2017-06-21T05:22:17.885Z,30.15
2017-06-21T05:23:19.713Z,30.13
2017-06-21T05:24:21.582Z,30.08
2017-06-21T05:25:23.455Z,30.15
2017-06-21T05:26:25.349Z,30.34
2017-06-21T05:27:39.513Z,30.39
2017-06-21T05:28:41.375Z,30.23
2017-06-21T05:29:43.253Z,29.94
2017-06-21T05:30:45.142Z,29.60
2017-06-21T05:31:46.953Z,29.00
2017-06-21T05:32:48.763Z,28.68
2017-06-21T05:33:50.657Z,28.31
2017-06-21T05:34:52.548Z,28.11
2017-06-21T05:35:54.442Z,28.07
2017-06-21T05:37:08.605Z,27.96
2017-06-21T05:38:10.495Z,27.49
2017-06-21T05:39:12.386Z,27.29
2017-06-21T05:40:14.258Z,27.10
2017-06-21T05:41:16.092Z,26.76
2017-06-21T05:42:17.917Z,26.50
2017-06-21T05:43:19.785Z,26.23
2017-06-21T05:44:21.674Z,25.99
2017-06-21T05:45:23.537Z,25.90
2017-06-21T05:46:37.682Z,25.77
2017-06-21T05:47:39.573Z,25.64
2017-06-21T05:48:41.467Z,25.42
2017-06-21T05:49:43.347Z,25.43
2017-06-21T05:50:45.160Z,25.23
2017-06-21T05:51:46.965Z,24.95
2017-06-21T05:52:48.834Z,24.50
2017-06-21T05:53:50.703Z,24.06
2017-06-21T05:54:52.589Z,23.93
2017-06-21T05:56:06.735Z,23.80
2017-06-21T05:57:08.625Z,23.75
2017-06-21T05:58:10.514Z,23.65
2017-06-21T05:59:12.380Z,23.61
2017-06-21T06:00:14.189Z,23.51
2017-06-21T06:01:15.998Z,23.33
2017-06-21T06:02:17.841Z,23.04
2017-06-21T06:03:19.656Z,22.88
2017-06-21T06:04:21.482Z,22.77
2017-06-21T06:05:35.625Z,22.55
2017-06-21T06:06:37.508Z,22.49
2017-06-21T06:07:39.373Z,22.52
2017-06-21T06:08:41.265Z,22.57
2017-06-21T06:09:43.094Z,22.58
2017-06-21T06:10:44.904Z,22.58
2017-06-21T06:11:46.789Z,22.51
2017-06-21T06:12:48.656Z,22.25
2017-06-21T06:13:50.531Z,22.10
2017-06-21T06:15:04.690Z,22.00
2017-06-21T06:16:06.577Z,22.03
2017-06-21T06:17:08.441Z,22.03
2017-06-21T06:18:10.308Z,22.14
2017-06-21T06:19:12.139Z,22.12
2017-06-21T06:20:13.942Z,22.07
2017-06-21T06:21:15.834Z,22.05
2017-06-21T06:22:17.723Z,21.86
2017-06-21T06:23:19.585Z,21.94
2017-06-21T06:24:33.729Z,21.92
2017-06-21T06:25:35.618Z,21.92
2017-06-21T06:26:37.485Z,22.06
2017-06-21T06:27:39.374Z,22.07
2017-06-21T06:28:41.183Z,22.17
2017-06-21T06:29:42.990Z,22.21
2017-06-21T06:30:44.880Z,22.28
2017-06-21T06:31:46.767Z,22.45
2017-06-21T06:32:48.637Z,22.61
2017-06-21T06:34:02.797Z,22.54
2017-06-21T06:35:04.681Z,22.55
2017-06-21T06:36:06.541Z,22.60
2017-06-21T06:37:08.412Z,22.77
2017-06-21T06:38:10.224Z,22.79
2017-06-21T06:39:12.044Z,22.86
2017-06-21T06:40:13.913Z,22.79
2017-06-21T06:41:15.803Z,22.68
2017-06-21T06:42:17.688Z,22.43
2017-06-21T06:43:31.831Z,22.36
2017-06-21T06:44:33.696Z,22.30
2017-06-21T06:45:35.559Z,22.20
2017-06-21T06:46:37.428Z,22.17
2017-06-21T06:47:39.238Z,22.06
2017-06-21T06:48:41.043Z,22.10
2017-06-21T06:49:42.915Z,22.17
2017-06-21T06:50:44.805Z,22.22
2017-06-21T06:51:46.692Z,22.22
2017-06-21T06:53:00.850Z,22.30
2017-06-21T06:54:02.718Z,22.28
2017-06-21T06:55:04.626Z,22.28
2017-06-21T06:56:06.494Z,22.37
2017-06-21T06:57:08.324Z,22.43
2017-06-21T06:58:10.152Z,22.55
2017-06-21T06:59:12.039Z,22.36
2017-06-21T07:00:13.929Z,22.35
2017-06-21T07:01:15.811Z,22.33
2017-06-21T07:02:29.950Z,22.42
2017-06-21T07:03:31.822Z,22.45
2017-06-21T07:04:33.705Z,22.57
2017-06-21T07:05:35.575Z,22.67
2017-06-21T07:06:37.403Z,22.72
2017-06-21T07:07:39.215Z,22.68
2017-06-21T07:08:41.074Z,22.57
2017-06-21T07:09:42.945Z,22.67
2017-06-21T07:10:44.829Z,22.64
2017-06-21T07:11:58.970Z,22.57
2017-06-21T07:13:00.836Z,22.61
2017-06-21T07:14:02.702Z,22.57
2017-06-21T07:15:04.569Z,22.65
2017-06-21T07:16:06.375Z,22.72
2017-06-21T07:17:08.177Z,22.75
2017-06-21T07:18:10.048Z,22.76
2017-06-21T07:19:11.918Z,22.65
2017-06-21T07:20:13.809Z,22.65
2017-06-21T07:21:27.967Z,22.58
2017-06-21T07:22:29.838Z,22.65
2017-06-21T07:23:31.724Z,22.73
2017-06-21T07:24:33.612Z,22.83
2017-06-21T07:25:35.422Z,22.76
2017-06-21T07:26:37.229Z,22.75
2017-06-21T07:27:39.118Z,22.76
2017-06-21T07:28:41.005Z,22.86
2017-06-21T07:29:42.869Z,22.88
2017-06-21T07:30:57.009Z,23.01
2017-06-21T07:31:58.878Z,23.12
2017-06-21T07:33:00.766Z,23.27
2017-06-21T07:34:02.655Z,23.47
2017-06-21T07:35:04.488Z,23.57
2017-06-21T07:36:06.286Z,23.50
2017-06-21T07:37:08.159Z,23.40
2017-06-21T07:38:10.022Z,23.32
2017-06-21T07:39:11.890Z,23.17
2017-06-21T07:40:26.051Z,23.07
2017-06-21T07:41:27.941Z,23.23
2017-06-21T07:42:29.825Z,23.36
2017-06-21T07:43:31.695Z,23.23
2017-06-21T07:44:33.523Z,23.20
2017-06-21T07:45:35.330Z,23.07
2017-06-21T07:46:37.216Z,22.91
2017-06-21T07:47:39.086Z,22.83
2017-06-21T07:48:40.950Z,22.90
2017-06-21T07:49:55.087Z,22.80
2017-06-21T07:50:56.957Z,22.79
2017-06-21T07:51:58.844Z,22.85
2017-06-21T07:53:00.737Z,22.80
2017-06-21T07:54:02.568Z,22.67
2017-06-21T07:55:04.396Z,22.72
2017-06-21T07:56:06.221Z,22.72
2017-06-21T07:57:08.048Z,22.86
2017-06-21T07:58:09.856Z,22.94
2017-06-21T07:59:23.998Z,23.04
2017-06-21T08:00:25.863Z,23.04
2017-06-21T08:01:27.753Z,22.91
2017-06-21T08:02:29.636Z,22.88
2017-06-21T08:03:31.451Z,22.86
2017-06-21T08:04:33.273Z,22.86
2017-06-21T08:05:35.143Z,22.83
2017-06-21T08:06:37.035Z,22.90
2017-06-21T08:07:38.921Z,22.90
2017-06-21T08:08:53.076Z,23.05
2017-06-21T08:09:54.943Z,23.02
2017-06-21T08:10:56.829Z,23.17
2017-06-21T08:11:58.702Z,23.27
2017-06-21T08:13:00.529Z,23.23
2017-06-21T08:14:02.338Z,23.28
2017-06-21T08:15:04.229Z,23.35
2017-06-21T08:16:06.117Z,23.40
2017-06-21T08:17:08.003Z,23.50
2017-06-21T08:18:22.159Z,23.60
2017-06-21T08:19:24.028Z,23.65
2017-06-21T08:20:25.894Z,23.58
2017-06-21T08:21:27.764Z,23.57
2017-06-21T08:22:29.575Z,23.68
2017-06-21T08:23:31.400Z,23.65
2017-06-21T08:24:33.294Z,23.65
2017-06-21T08:25:35.184Z,23.60
2017-06-21T08:26:37.074Z,23.65
2017-06-21T08:27:51.233Z,23.58
2017-06-21T08:28:53.120Z,23.57
2017-06-21T08:29:55.005Z,23.50
2017-06-21T08:30:56.879Z,23.48
2017-06-21T08:31:58.707Z,23.36
2017-06-21T08:33:00.506Z,23.36
2017-06-21T08:34:02.374Z,23.27
2017-06-21T08:35:04.241Z,23.07
2017-06-21T08:36:06.108Z,23.05
2017-06-21T08:37:20.273Z,22.82
2017-06-21T08:38:22.157Z,22.76
2017-06-21T08:39:24.050Z,22.75
2017-06-21T08:40:25.937Z,22.80
2017-06-21T08:41:27.768Z,22.91
2017-06-21T08:42:29.590Z,22.79
2017-06-21T08:43:31.458Z,22.79
2017-06-21T08:44:33.344Z,22.73
2017-06-21T08:45:35.215Z,22.86
2017-06-21T08:46:49.423Z,23.00
2017-06-21T08:47:51.291Z,23.01
2017-06-21T08:48:53.176Z,23.09
2017-06-21T08:49:55.046Z,23.09
2017-06-21T08:50:56.853Z,23.15
2017-06-21T08:51:58.683Z,23.27
2017-06-21T08:53:00.567Z,23.23
2017-06-21T08:54:02.457Z,23.33
2017-06-21T08:55:04.325Z,23.32
2017-06-21T08:56:18.474Z,23.19
2017-06-21T08:57:20.341Z,23.05
2017-06-21T08:58:22.210Z,23.00
2017-06-21T08:59:24.097Z,23.00
2017-06-21T09:00:25.924Z,23.00
2017-06-21T09:01:27.734Z,23.04
2017-06-21T09:02:29.617Z,23.17
2017-06-21T09:03:31.484Z,23.25
2017-06-21T09:04:33.353Z,23.28
2017-06-21T09:05:47.493Z,23.23
2017-06-21T09:06:49.358Z,23.33
2017-06-21T09:07:51.246Z,23.31
2017-06-21T09:08:53.121Z,23.17
2017-06-21T09:09:54.947Z,23.16
2017-06-21T09:10:56.777Z,23.27
2017-06-21T09:11:58.662Z,23.28
2017-06-21T09:13:00.530Z,23.16
2017-06-21T09:14:02.401Z,23.20
2017-06-21T09:15:16.555Z,23.31
2017-06-21T09:16:18.426Z,23.27
2017-06-21T09:17:20.310Z,23.40
2017-06-21T09:18:22.173Z,23.48
2017-06-21T09:19:23.986Z,23.51
2017-06-21T09:20:25.809Z,23.47
2017-06-21T09:21:27.680Z,23.53
2017-06-21T09:22:29.545Z,23.55
2017-06-21T09:23:31.419Z,23.48
2017-06-21T09:24:45.580Z,23.58
2017-06-21T09:25:47.460Z,23.57
2017-06-21T09:26:49.332Z,23.57
2017-06-21T09:27:51.221Z,23.65
2017-06-21T09:28:53.026Z,23.76
2017-06-21T09:29:54.835Z,23.78
2017-06-21T09:30:56.703Z,23.98
2017-06-21T09:31:58.575Z,24.13
2017-06-21T09:33:00.461Z,24.13
2017-06-21T09:34:14.624Z,24.24
2017-06-21T09:35:16.514Z,24.13
2017-06-21T09:36:18.399Z,24.13
2017-06-21T09:37:20.273Z,24.18
2017-06-21T09:38:22.102Z,24.24
2017-06-21T09:39:23.932Z,24.25
2017-06-21T09:40:25.822Z,24.28
2017-06-21T09:41:27.685Z,24.22
2017-06-21T09:42:29.549Z,24.16
2017-06-21T09:43:43.693Z,24.22
2017-06-21T09:44:45.578Z,24.15
2017-06-21T09:45:47.469Z,24.12
2017-06-21T09:46:49.357Z,24.13
2017-06-21T09:47:51.196Z,24.13
2017-06-21T09:48:53.015Z,24.12
2017-06-21T09:49:54.903Z,24.10
2017-06-21T09:50:56.788Z,23.98
2017-06-21T09:51:58.656Z,23.83
2017-06-21T09:53:12.820Z,23.66
2017-06-21T09:54:14.683Z,23.73
2017-06-21T09:55:16.552Z,23.76
2017-06-21T09:56:18.421Z,23.83
2017-06-21T09:57:20.231Z,23.93
2017-06-21T09:58:22.037Z,23.93
2017-06-21T09:59:23.927Z,23.97
2017-06-21T10:00:25.793Z,23.95
2017-06-21T10:01:27.663Z,23.97
2017-06-21T10:02:41.826Z,24.08
2017-06-21T10:03:43.712Z,24.10
2017-06-21T10:04:45.598Z,24.24
2017-06-21T10:05:47.467Z,24.25
2017-06-21T10:06:49.281Z,24.25
2017-06-21T10:07:51.100Z,24.31
2017-06-21T10:08:52.964Z,24.32
2017-06-21T10:09:54.836Z,24.34
2017-06-21T10:10:56.722Z,24.31
2017-06-21T10:12:10.869Z,24.24
2017-06-21T10:13:12.751Z,24.22
2017-06-21T10:14:14.621Z,24.32
2017-06-21T10:15:16.513Z,24.47
2017-06-21T10:16:18.341Z,24.60
2017-06-21T10:17:20.143Z,24.60
2017-06-21T10:18:22.035Z,24.58
2017-06-21T10:19:23.924Z,24.49
2017-06-21T10:20:25.785Z,24.46
2017-06-21T10:21:39.928Z,24.43
2017-06-21T10:22:41.813Z,24.34
2017-06-21T10:23:43.703Z,24.25
2017-06-21T10:24:45.590Z,24.31
2017-06-21T10:25:47.420Z,24.28
2017-06-21T10:26:49.243Z,24.32
2017-06-21T10:27:51.115Z,24.37
2017-06-21T10:28:53.005Z,24.34
2017-06-21T10:29:54.871Z,24.39
2017-06-21T10:31:09.061Z,24.35
2017-06-21T10:32:10.924Z,24.32
2017-06-21T10:33:12.792Z,24.37
2017-06-21T10:34:14.660Z,24.37
2017-06-21T10:35:16.489Z,24.52
2017-06-21T10:36:18.314Z,24.65
2017-06-21T10:37:20.176Z,24.78
2017-06-21T10:38:22.050Z,24.88
2017-06-21T10:39:23.921Z,25.05
2017-06-21T10:40:38.078Z,24.96
2017-06-21T10:41:39.941Z,24.84
2017-06-21T10:42:41.813Z,24.87
2017-06-21T10:43:43.702Z,24.85
2017-06-21T10:44:45.531Z,24.76
2017-06-21T10:45:47.328Z,24.69
2017-06-21T10:46:49.161Z,24.71
2017-06-21T10:47:50.972Z,24.81
2017-06-21T10:48:52.796Z,24.84
2017-06-21T10:50:06.979Z,24.80
2017-06-21T10:51:08.860Z,24.85
2017-06-21T10:52:10.730Z,24.90
2017-06-21T10:53:12.614Z,24.91
2017-06-21T10:54:14.424Z,24.99
2017-06-21T10:55:16.250Z,24.87
2017-06-21T10:56:18.139Z,24.78
2017-06-21T10:57:20.005Z,24.68
2017-06-21T10:58:21.874Z,24.68
2017-06-21T10:59:36.042Z,24.83
2017-06-21T11:00:37.928Z,24.84
2017-06-21T11:01:39.795Z,24.81
2017-06-21T11:02:41.655Z,24.78
2017-06-21T11:03:43.465Z,24.80
2017-06-21T11:04:45.288Z,24.78
2017-06-21T11:05:47.158Z,24.83
2017-06-21T11:06:49.045Z,24.80
2017-06-21T11:07:50.912Z,24.83
2017-06-21T11:09:05.053Z,25.00
2017-06-21T11:10:06.936Z,24.90
2017-06-21T11:11:08.798Z,25.02
2017-06-21T11:12:10.666Z,25.06
2017-06-21T11:13:12.473Z,24.87
2017-06-21T11:14:14.283Z,24.84
2017-06-21T11:15:16.171Z,24.78
2017-06-21T11:16:18.039Z,24.81
2017-06-21T11:17:19.909Z,24.80
2017-06-21T11:18:34.065Z,24.93
2017-06-21T11:19:36.045Z,24.98
2017-06-21T11:20:37.974Z,24.91
2017-06-21T11:21:39.861Z,24.96
2017-06-21T11:22:41.688Z,24.90
2017-06-21T11:23:43.520Z,24.98
2017-06-21T11:24:45.408Z,24.90
2017-06-21T11:25:47.276Z,24.81
2017-06-21T11:26:49.151Z,24.84
2017-06-21T11:28:03.359Z,24.93
2017-06-21T11:29:05.239Z,25.05
2017-06-21T11:30:07.109Z,25.10
2017-06-21T11:31:08.977Z,25.14
2017-06-21T11:32:10.827Z,25.05
2017-06-21T11:33:12.629Z,25.14
2017-06-21T11:34:14.512Z,25.08
2017-06-21T11:35:16.386Z,25.03
2017-06-21T11:36:18.253Z,24.96
2017-06-21T11:37:32.394Z,24.80
2017-06-21T11:38:34.259Z,24.87
2017-06-21T11:39:36.132Z,25.05
2017-06-21T11:40:38.001Z,25.10
2017-06-21T11:41:39.828Z,25.06
2017-06-21T11:42:41.634Z,25.18
2017-06-21T11:43:43.498Z,25.13
2017-06-21T11:44:45.366Z,25.06
2017-06-21T11:45:47.233Z,25.05
2017-06-21T11:47:01.392Z,25.05
2017-06-21T11:48:03.254Z,25.06
2017-06-21T11:49:05.127Z,25.03
2017-06-21T11:50:07.016Z,25.05
2017-06-21T11:51:08.842Z,25.06
2017-06-21T11:52:10.667Z,25.09
2017-06-21T11:53:12.537Z,25.09
2017-06-21T11:54:14.429Z,25.27
2017-06-21T11:55:16.316Z,25.28
2017-06-21T11:56:30.450Z,25.20
2017-06-21T11:57:32.325Z,25.05
2017-06-21T11:58:34.210Z,25.08
2017-06-21T11:59:36.078Z,25.03
2017-06-21T12:00:37.902Z,25.00
2017-06-21T12:01:39.712Z,25.06
2017-06-21T12:02:41.572Z,25.21
2017-06-21T12:03:43.447Z,25.42
2017-06-21T12:04:45.327Z,25.52
2017-06-21T12:05:59.466Z,25.57
2017-06-21T12:07:01.360Z,25.47
2017-06-21T12:08:03.247Z,25.47
2017-06-21T12:09:05.117Z,25.51
2017-06-21T12:10:06.946Z,25.43
2017-06-21T12:11:08.774Z,25.55
2017-06-21T12:12:10.636Z,25.47
2017-06-21T12:13:12.523Z,25.62
2017-06-21T12:14:14.394Z,25.72
2017-06-21T12:15:28.559Z,25.75
2017-06-21T12:16:30.443Z,25.62
2017-06-21T12:17:32.315Z,25.69
2017-06-21T12:18:34.197Z,25.72
2017-06-21T12:19:36.028Z,25.60
2017-06-21T12:20:37.833Z,25.58
2017-06-21T12:21:39.727Z,25.55
2017-06-21T12:22:41.596Z,25.51
2017-06-21T12:23:43.482Z,25.51
2017-06-21T12:24:57.629Z,25.52
2017-06-21T12:25:59.527Z,25.69
2017-06-21T12:27:01.422Z,25.69
2017-06-21T12:28:03.307Z,25.65
2017-06-21T12:29:05.140Z,25.76
2017-06-21T12:30:06.936Z,25.83
2017-06-21T12:31:08.798Z,25.87
2017-06-21T12:32:10.666Z,25.80
2017-06-21T12:33:12.539Z,25.73
2017-06-21T12:34:26.696Z,25.85
2017-06-21T12:35:28.567Z,26.06
2017-06-21T12:36:30.458Z,26.10
2017-06-21T12:37:32.349Z,26.13
2017-06-21T12:38:34.149Z,26.20
2017-06-21T12:39:35.962Z,26.02
2017-06-21T12:40:37.852Z,25.94
2017-06-21T12:41:39.745Z,26.05
2017-06-21T12:42:41.604Z,25.97
2017-06-21T12:43:55.743Z,26.06
2017-06-21T12:44:57.612Z,25.97
2017-06-21T12:45:59.481Z,26.06
2017-06-21T12:47:01.375Z,26.32
2017-06-21T12:48:03.220Z,26.44
2017-06-21T12:49:05.033Z,26.36
2017-06-21T12:50:07.363Z,26.48
2017-06-21T12:51:09.196Z,26.45
2017-06-21T12:52:11.065Z,26.55
2017-06-21T12:53:25.230Z,26.57
2017-06-21T12:54:27.112Z,26.60
2017-06-21T12:55:28.980Z,26.62
2017-06-21T12:56:30.852Z,26.40
2017-06-21T12:57:32.683Z,26.23
2017-06-21T12:58:34.508Z,26.07
2017-06-21T12:59:36.383Z,26.23
2017-06-21T13:00:38.267Z,26.35
2017-06-21T13:01:40.139Z,26.36
2017-06-21T13:02:54.301Z,26.39
2017-06-21T13:03:56.193Z,26.29
2017-06-21T13:04:58.084Z,26.30
2017-06-21T13:05:59.953Z,26.43
2017-06-21T13:07:01.783Z,26.47
2017-06-21T13:08:03.614Z,26.58
2017-06-21T13:09:05.499Z,26.67
2017-06-21T13:10:07.370Z,26.66
2017-06-21T13:11:09.239Z,26.72
2017-06-21T13:12:23.400Z,26.81
2017-06-21T13:13:25.282Z,26.88
2017-06-21T13:14:27.149Z,27.03
2017-06-21T13:15:29.018Z,27.02
2017-06-21T13:16:30.822Z,26.97
2017-06-21T13:17:32.634Z,27.04
2017-06-21T13:18:34.504Z,27.14
2017-06-21T13:19:36.393Z,27.12
2017-06-21T13:20:38.265Z,27.03
2017-06-21T13:21:52.411Z,26.91
2017-06-21T13:22:54.302Z,26.87
2017-06-21T13:23:56.168Z,26.88
2017-06-21T13:24:58.037Z,26.91
2017-06-21T13:25:59.848Z,27.17
2017-06-21T13:27:01.681Z,27.47
2017-06-21T13:28:03.568Z,27.65
2017-06-21T13:29:05.437Z,27.69
2017-06-21T13:30:07.306Z,27.67
2017-06-21T13:31:21.469Z,27.54
2017-06-21T13:32:23.340Z,27.40
2017-06-21T13:33:25.235Z,27.37
2017-06-21T13:34:27.097Z,27.29
2017-06-21T13:35:28.914Z,27.13